Time;durP1;ratioP1;P1;durP2;ratioP2;P2;SDS_P1;SDS_P2;PMS_P1;PMS_P2;Temp;Humidity;BMP_temperature;BMP_pressure;BME280_temperature;BME280_humidity;BME280_pressure;Samples;Min_cycle;Max_cycle;Signal;HPM_P1;HPM_P2
2023/03/23 00:00:30;;;;;;;4.70;4.30;;;14.10;28.50;;;;;;10453449;28;20770;-76
2023/03/23 00:05:36;;;;;;;4.77;4.37;;;14.00;28.50;;;;;;10449337;28;20592;-76
2023/03/23 00:10:38;;;;;;;5.23;4.50;;;13.90;28.60;;;;;;10449671;28;20232;-72
2023/03/23 00:15:41;;;;;;;4.73;4.33;;;13.90;28.60;;;;;;10455854;28;20251;-72
2023/03/23 00:20:44;;;;;;;4.70;4.20;;;13.80;28.60;;;;;;10449421;28;20614;-71
2023/03/23 00:25:48;;;;;;;5.10;4.27;;;13.80;28.90;;;;;;10445947;28;20236;-76
2023/03/23 00:30:56;;;;;;;4.03;3.63;;;13.70;28.80;;;;;;10443252;28;20624;-76
2023/03/23 00:36:00;;;;;;;4.00;3.60;;;13.70;28.90;;;;;;10448258;28;20584;-76
2023/03/23 00:41:03;;;;;;;4.43;4.03;;;13.70;29.10;;;;;;10452727;28;20253;-75
2023/03/23 00:46:09;;;;;;;4.20;3.80;;;13.60;28.90;;;;;;10452215;28;20232;-71
2023/03/23 00:51:13;;;;;;;4.27;3.83;;;13.60;29.00;;;;;;10452148;28;20224;-72
2023/03/23 00:56:15;;;;;;;4.60;4.10;;;13.60;29.10;;;;;;10451941;28;20228;-75
2023/03/23 01:01:17;;;;;;;4.70;4.10;;;13.50;29.00;;;;;;10442700;28;20221;-76
2023/03/23 01:06:21;;;;;;;4.23;3.90;;;13.40;29.00;;;;;;10444418;28;20715;-76
2023/03/23 01:11:23;;;;;;;4.20;3.73;;;13.30;29.40;;;;;;10449038;28;20665;-72
2023/03/23 01:16:26;;;;;;;4.20;3.90;;;13.30;29.20;;;;;;10448321;28;20303;-71
2023/03/23 01:21:29;;;;;;;3.60;3.30;;;13.20;29.30;;;;;;10440490;28;20228;-71
2023/03/23 01:26:31;;;;;;;4.07;3.77;;;13.20;29.50;;;;;;10449337;28;20697;-72
2023/03/23 01:31:36;;;;;;;3.70;3.40;;;13.20;29.50;;;;;;10444780;28;20599;-71
2023/03/23 01:36:40;;;;;;;3.83;3.53;;;13.10;29.50;;;;;;10449681;28;20244;-72
2023/03/23 01:41:42;;;;;;;3.93;3.63;;;13.10;29.70;;;;;;10444849;28;20603;-72
2023/03/23 01:46:45;;;;;;;3.57;3.27;;;13.00;29.50;;;;;;10444099;28;20236;-76
2023/03/23 01:51:53;;;;;;;4.53;3.90;;;13.00;29.80;;;;;;10441427;28;20227;-72
2023/03/23 01:57:01;;;;;;;4.53;4.10;;;12.90;30.30;;;;;;10447900;28;20220;-72
2023/03/23 02:02:04;;;;;;;4.53;4.13;;;12.90;30.30;;;;;;10447047;28;20773;-72
2023/03/23 02:07:07;;;;;;;3.77;3.47;;;12.80;29.80;;;;;;10447718;28;20225;-71
2023/03/23 02:12:10;;;;;;;4.07;3.77;;;12.70;30.10;;;;;;10440520;28;20755;-76
2023/03/23 02:17:22;;;;;;;4.57;4.00;;;12.70;30.10;;;;;;10449707;28;20227;-71
2023/03/23 02:23:15;;;;;;;4.70;4.30;;;12.60;30.00;;;;;;10460199;28;20233;-71
2023/03/23 02:28:49;;;;;;;4.23;3.83;;;12.60;30.30;;;;;;10440674;28;20216;-71
2023/03/23 02:33:58;;;;;;;5.43;4.17;;;12.50;30.60;;;;;;10435764;28;20236;-75
2023/03/23 02:39:09;;;;;;;5.17;4.50;;;12.40;31.00;;;;;;10450772;28;20361;-71
2023/03/23 02:44:13;;;;;;;4.70;4.10;;;12.30;31.30;;;;;;10450934;28;20305;-71
2023/03/23 02:49:18;;;;;;;4.57;4.17;;;12.30;30.70;;;;;;10456295;28;20217;-75
2023/03/23 02:54:22;;;;;;;4.90;4.50;;;12.20;31.20;;;;;;10454510;28;20239;-74
2023/03/23 02:59:24;;;;;;;4.70;4.27;;;12.20;31.20;;;;;;10456287;28;20617;-75
2023/03/23 03:04:29;;;;;;;4.30;3.80;;;12.10;31.00;;;;;;10447257;28;20538;-75
2023/03/23 03:09:42;;;;;;;4.47;4.07;;;12.20;31.60;;;;;;10457775;28;20324;-75
2023/03/23 03:14:55;;;;;;;5.07;4.63;;;12.30;32.00;;;;;;10450274;28;20232;-75
2023/03/23 03:20:06;;;;;;;5.40;4.87;;;12.30;32.00;;;;;;10454054;28;20281;-75
2023/03/23 03:25:09;;;;;;;4.57;4.03;;;12.30;31.90;;;;;;10458460;28;20310;-75
2023/03/23 03:30:16;;;;;;;4.40;4.00;;;12.30;31.40;;;;;;10446931;28;20311;-75
2023/03/23 03:35:21;;;;;;;5.60;4.13;;;12.30;31.90;;;;;;10456992;28;20232;-74
2023/03/23 03:40:24;;;;;;;5.03;4.53;;;12.30;31.60;;;;;;10456319;28;20236;-75
2023/03/23 03:45:26;;;;;;;4.47;4.07;;;12.40;31.60;;;;;;10453581;28;20663;-75
2023/03/23 03:50:30;;;;;;;4.97;4.43;;;12.40;31.70;;;;;;10454168;28;20234;-75
2023/03/23 03:55:35;;;;;;;5.17;4.30;;;12.50;32.30;;;;;;10450338;28;20283;-75
2023/03/23 04:00:38;;;;;;;5.10;4.60;;;12.50;32.00;;;;;;10453237;28;20700;-75
2023/03/23 04:05:44;;;;;;;4.80;4.23;;;12.50;32.00;;;;;;10448548;28;20266;-75
2023/03/23 04:10:48;;;;;;;4.53;4.20;;;12.50;32.40;;;;;;10454950;28;20240;-75
2023/03/23 04:15:50;;;;;;;6.07;4.70;;;12.60;32.10;;;;;;10450608;28;20316;-75
2023/03/23 04:20:53;;;;;;;4.63;4.23;;;12.60;32.20;;;;;;10451265;28;20591;-75
2023/03/23 04:25:56;;;;;;;4.33;4.03;;;12.70;32.50;;;;;;10446543;28;20366;-71
2023/03/23 04:31:00;;;;;;;4.60;4.20;;;12.70;32.20;;;;;;10448255;28;20375;-71
2023/03/23 04:36:05;;;;;;;4.40;4.00;;;12.80;32.30;;;;;;10444981;28;20596;-75
2023/03/23 04:41:07;;;;;;;7.30;4.20;;;12.90;33.30;;;;;;10438803;28;20224;-72
2023/03/23 04:46:10;;;;;;;4.47;4.10;;;13.00;32.30;;;;;;10446610;28;20232;-71
2023/03/23 04:51:13;;;;;;;5.13;4.73;;;13.00;32.30;;;;;;10464653;28;20216;-71
2023/03/23 04:56:15;;;;;;;4.97;4.47;;;13.10;32.70;;;;;;10449820;28;20584;-72
2023/03/23 05:01:19;;;;;;;5.27;4.77;;;13.10;32.70;;;;;;10451707;28;20255;-71
2023/03/23 05:06:23;;;;;;;4.60;4.20;;;13.10;32.90;;;;;;10448672;28;20237;-71
2023/03/23 05:11:25;;;;;;;4.73;4.33;;;13.10;33.20;;;;;;10442324;28;20247;-71
2023/03/23 05:16:28;;;;;;;4.43;4.03;;;13.10;32.90;;;;;;10447651;28;20235;-73
2023/03/23 05:21:32;;;;;;;4.83;4.43;;;13.10;33.00;;;;;;10456690;28;20756;-71
2023/03/23 05:26:34;;;;;;;4.90;4.50;;;13.10;33.40;;;;;;10447417;28;20228;-71
2023/03/23 05:31:37;;;;;;;4.77;4.37;;;13.10;33.30;;;;;;10441587;28;20234;-71
2023/03/23 05:36:44;;;;;;;4.53;4.20;;;13.10;33.30;;;;;;10440716;28;20270;-71
2023/03/23 05:41:46;;;;;;;4.53;4.13;;;13.00;34.00;;;;;;10448995;28;20285;-75
2023/03/23 05:46:49;;;;;;;4.47;4.13;;;13.00;33.30;;;;;;10450858;28;20775;-73
2023/03/23 05:51:52;;;;;;;5.77;4.50;;;13.10;33.40;;;;;;10443401;28;20244;-76
2023/03/23 05:56:54;;;;;;;4.40;4.00;;;13.20;33.70;;;;;;10452154;28;20236;-75
2023/03/23 06:01:57;;;;;;;4.93;3.70;;;13.30;33.40;;;;;;10454037;28;20227;-75
2023/03/23 06:07:02;;;;;;;4.43;4.03;;;13.30;33.40;;;;;;10451934;28;20224;-75
2023/03/23 06:12:04;;;;;;;3.53;3.23;;;13.50;33.60;;;;;;10451118;28;20665;-75
2023/03/23 06:17:07;;;;;;;4.00;3.70;;;13.60;33.30;;;;;;10450970;28;20225;-74
2023/03/23 06:22:11;;;;;;;4.27;3.87;;;13.70;33.20;;;;;;10454232;28;20247;-74
2023/03/23 06:27:15;;;;;;;3.33;3.13;;;13.90;33.40;;;;;;10450143;28;20344;-73
2023/03/23 06:32:17;;;;;;;3.53;3.30;;;14.10;33.20;;;;;;10459198;28;20224;-73
2023/03/23 06:37:21;;;;;;;4.10;3.70;;;14.30;33.20;;;;;;10460347;28;20225;-77
2023/03/23 06:42:25;;;;;;;3.97;3.60;;;14.40;33.30;;;;;;10460332;28;20228;-74
2023/03/23 06:47:27;;;;;;;5.30;4.80;;;14.40;33.00;;;;;;10456294;28;20256;-75
2023/03/23 06:52:31;;;;;;;4.20;3.90;;;14.50;32.80;;;;;;10452636;28;20795;-72
2023/03/23 06:57:33;;;;;;;3.90;3.60;;;14.60;33.10;;;;;;10454806;28;20225;-75
2023/03/23 07:02:35;;;;;;;4.03;3.63;;;14.60;32.80;;;;;;10435383;28;20235;-75
2023/03/23 07:07:40;;;;;;;3.97;3.67;;;14.70;32.90;;;;;;10451598;28;20224;-75
2023/03/23 07:12:42;;;;;;;3.90;3.60;;;14.70;33.20;;;;;;10450553;28;20324;-77
2023/03/23 07:17:45;;;;;;;4.10;3.70;;;14.70;32.80;;;;;;10455118;28;20227;-75
2023/03/23 07:22:49;;;;;;;4.13;3.70;;;14.80;32.80;;;;;;10440638;28;20228;-72
2023/03/23 07:27:51;;;;;;;4.77;3.37;;;14.80;32.90;;;;;;10453632;28;20231;-72
2023/03/23 07:32:53;;;;;;;7.37;3.77;;;14.90;32.90;;;;;;10454656;28;20544;-72
2023/03/23 07:37:57;;;;;;;3.60;3.30;;;14.90;32.70;;;;;;10450240;28;20229;-70
2023/03/23 07:43:00;;;;;;;4.33;3.40;;;15.00;32.80;;;;;;10446375;28;20213;-75
2023/03/23 07:48:02;;;;;;;3.50;3.00;;;15.10;32.70;;;;;;10452929;28;20342;-76
2023/03/23 07:53:05;;;;;;;4.37;3.30;;;15.20;32.40;;;;;;10451704;28;20708;-76
2023/03/23 07:58:08;;;;;;;3.60;3.30;;;15.30;32.40;;;;;;10455114;28;20225;-75
2023/03/23 08:03:10;;;;;;;3.83;3.43;;;15.50;32.50;;;;;;10444530;28;20304;-75
2023/03/23 08:08:14;;;;;;;3.37;3.07;;;15.60;32.60;;;;;;10448645;28;20525;-75
2023/03/23 08:13:16;;;;;;;4.07;3.40;;;15.80;32.70;;;;;;10441809;28;20224;-75
2023/03/23 08:18:19;;;;;;;3.90;3.50;;;15.90;32.60;;;;;;10445126;28;20217;-73
2023/03/23 08:23:22;;;;;;;3.33;3.03;;;16.00;32.30;;;;;;10450487;28;20224;-75
2023/03/23 08:28:24;;;;;;;3.23;2.93;;;16.20;31.90;;;;;;10445040;28;20584;-76
2023/03/23 08:33:27;;;;;;;3.77;3.17;;;16.40;32.00;;;;;;10448397;28;20259;-75
2023/03/23 08:38:32;;;;;;;3.40;3.10;;;16.60;31.80;;;;;;10448470;28;20247;-75
2023/03/23 08:43:35;;;;;;;3.40;3.10;;;16.70;31.40;;;;;;10439735;28;20594;-77
2023/03/23 08:48:38;;;;;;;3.33;3.03;;;16.90;31.70;;;;;;10449301;28;20224;-77
2023/03/23 08:53:42;;;;;;;3.50;3.20;;;17.10;31.50;;;;;;10447563;28;20228;-76
2023/03/23 08:58:44;;;;;;;3.17;2.87;;;17.20;31.40;;;;;;10449934;28;20274;-76
2023/03/23 09:03:46;;;;;;;3.00;2.80;;;17.30;31.20;;;;;;10447346;28;20261;-76
2023/03/23 09:08:50;;;;;;;3.80;2.83;;;17.40;31.20;;;;;;10439113;28;20643;-77
2023/03/23 09:13:52;;;;;;;3.40;3.10;;;17.60;30.90;;;;;;10444518;28;20224;-78
2023/03/23 09:18:56;;;;;;;3.80;3.50;;;17.60;31.10;;;;;;10442291;28;20225;-75
2023/03/23 09:24:01;;;;;;;3.00;2.80;;;17.70;30.90;;;;;;10448209;28;20256;-77
2023/03/23 09:29:03;;;;;;;4.30;3.10;;;17.90;31.00;;;;;;10448676;28;20227;-77
2023/03/23 09:34:06;;;;;;;3.00;2.77;;;17.90;31.00;;;;;;10448308;28;21701;-77
2023/03/23 09:39:11;;;;;;;2.60;2.40;;;18.00;31.20;;;;;;10444515;28;22047;-77
2023/03/23 09:44:23;;;;;;;4.73;3.40;;;18.10;30.50;;;;;;10445378;28;20220;-77
2023/03/23 09:49:28;;;;;;;4.50;4.03;;;18.30;30.00;;;;;;10440153;28;20224;-76
2023/03/23 09:54:36;;;;;;;2.63;2.43;;;18.60;30.20;;;;;;10426734;28;20252;-76
2023/03/23 09:59:43;;;;;;;2.20;1.93;;;18.80;29.40;;;;;;10423890;28;21901;-77
2023/03/23 10:04:47;;;;;;;2.43;2.23;;;19.00;29.10;;;;;;10423529;28;20733;-76
2023/03/23 10:09:53;;;;;;;2.27;2.07;;;19.20;29.30;;;;;;10440480;28;20231;-77
2023/03/23 10:15:08;;;;;;;2.80;2.00;;;19.30;28.90;;;;;;10440806;28;20229;-77
2023/03/23 10:20:45;;;;;;;2.83;2.10;;;19.50;28.60;;;;;;10443099;28;20249;-77
2023/03/23 10:25:53;;;;;;;2.67;2.10;;;19.60;28.90;;;;;;10353239;28;20228;-77
2023/03/23 10:30:58;;;;;;;2.47;1.90;;;19.70;28.60;;;;;;10437364;28;20598;-77
2023/03/23 10:36:04;;;;;;;2.80;1.90;;;19.80;28.60;;;;;;10440469;28;20230;-77
2023/03/23 10:41:12;;;;;;;5.03;1.90;;;19.90;28.60;;;;;;10444385;28;20232;-76
2023/03/23 10:46:26;;;;;;;2.03;1.90;;;20.00;28.20;;;;;;10449987;28;20527;-77
2023/03/23 10:51:34;;;;;;;1.83;1.70;;;20.20;27.40;;;;;;10445989;28;20224;-77
2023/03/23 10:56:39;;;;;;;4.23;2.20;;;20.30;27.50;;;;;;10448599;28;20234;-77
2023/03/23 11:01:45;;;;;;;1.87;1.70;;;20.30;27.80;;;;;;10447903;28;20239;-77
2023/03/23 11:06:49;;;;;;;2.20;2.00;;;20.40;27.90;;;;;;10438698;28;20232;-77
2023/03/23 11:11:55;;;;;;;2.27;2.10;;;20.40;27.40;;;;;;10448020;28;20236;-77
2023/03/23 11:17:00;;;;;;;2.70;1.97;;;20.50;27.50;;;;;;10445079;28;20224;-77
2023/03/23 11:22:09;;;;;;;1.80;1.70;;;20.50;27.80;;;;;;10440869;28;20220;-76
2023/03/23 11:27:15;;;;;;;1.93;1.70;;;20.60;27.30;;;;;;10443695;28;20217;-77
2023/03/23 11:32:17;;;;;;;2.27;1.80;;;20.70;27.80;;;;;;10460934;28;20224;-77
2023/03/23 11:37:24;;;;;;;3.27;1.87;;;20.80;27.60;;;;;;10448397;28;20232;-71
2023/03/23 11:42:46;;;;;;;2.33;2.13;;;20.90;27.40;;;;;;10449169;28;20221;-75
2023/03/23 11:48:30;;;;;;;1.70;1.43;;;21.00;27.20;;;;;;10404753;28;20743;-75
2023/03/23 11:53:48;;;;;;;2.03;1.60;;;21.30;27.60;;;;;;10428926;28;20233;-76
2023/03/23 11:58:52;;;;;;;1.80;1.63;;;21.20;26.10;;;;;;10442943;28;20313;-76
2023/03/23 12:04:29;;;;;;;1.40;1.30;;;21.20;26.50;;;;;;10438043;28;20644;-76
2023/03/23 12:09:42;;;;;;;1.77;1.40;;;21.20;26.20;;;;;;10422717;28;20223;-75
2023/03/23 12:14:53;;;;;;;1.43;1.33;;;21.20;26.10;;;;;;10444829;28;20244;-76
2023/03/23 12:20:10;;;;;;;4.07;1.60;;;21.10;26.10;;;;;;10445527;28;20221;-76
2023/03/23 12:25:33;;;;;;;1.30;1.20;;;21.00;26.00;;;;;;10444956;28;20224;-72
2023/03/23 12:30:42;;;;;;;1.47;1.27;;;20.90;25.90;;;;;;10440093;28;20253;-72
2023/03/23 12:35:56;;;;;;;2.60;1.50;;;20.80;26.30;;;;;;10446742;28;20313;-72
2023/03/23 12:41:09;;;;;;;1.37;1.27;;;20.70;26.60;;;;;;10450275;28;20748;-72
2023/03/23 12:46:37;;;;;;;1.50;1.40;;;20.70;26.40;;;;;;10445069;28;20251;-71
2023/03/23 12:51:45;;;;;;;1.50;1.40;;;20.70;26.30;;;;;;10439874;28;20662;-73
2023/03/23 12:56:54;;;;;;;1.60;1.40;;;20.70;26.20;;;;;;10437389;28;20224;-72
2023/03/23 13:02:04;;;;;;;1.50;1.40;;;20.70;26.60;;;;;;10440806;28;20225;-73
2023/03/23 13:07:11;;;;;;;1.80;1.40;;;20.70;26.60;;;;;;10436910;28;20237;-73
2023/03/23 13:12:13;;;;;;;1.50;1.40;;;20.60;26.80;;;;;;10440322;28;20225;-73
2023/03/23 13:17:27;;;;;;;1.40;1.30;;;20.60;27.00;;;;;;10446558;28;20220;-73
2023/03/23 13:22:36;;;;;;;1.60;1.40;;;20.70;26.60;;;;;;10438978;28;20307;-76
2023/03/23 13:27:38;;;;;;;1.43;1.33;;;20.70;26.60;;;;;;10449005;28;20236;-76
2023/03/23 13:32:46;;;;;;;1.50;1.40;;;20.70;27.10;;;;;;10451327;28;20633;-78
2023/03/23 13:37:50;;;;;;;2.63;1.57;;;20.70;26.90;;;;;;10449262;28;20315;-73
2023/03/23 13:42:58;;;;;;;1.60;1.50;;;20.70;27.20;;;;;;10452401;28;20595;-77
2023/03/23 13:48:07;;;;;;;1.70;1.50;;;20.60;26.90;;;;;;10442691;28;20220;-77
2023/03/23 13:53:15;;;;;;;1.60;1.50;;;20.70;26.70;;;;;;10440585;28;20235;-77
2023/03/23 13:58:25;;;;;;;2.80;1.50;;;20.70;26.60;;;;;;10436051;28;20221;-76
2023/03/23 14:03:49;;;;;;;1.50;1.40;;;20.70;26.60;;;;;;10437998;28;20224;-78
2023/03/23 14:08:58;;;;;;;1.47;1.30;;;20.80;26.80;;;;;;10439526;28;20315;-76
2023/03/23 14:14:08;;;;;;;1.60;1.50;;;20.80;26.80;;;;;;10449675;28;20226;-72
2023/03/23 14:19:24;;;;;;;1.73;1.63;;;20.90;26.70;;;;;;10445324;28;20227;-77
2023/03/23 14:24:28;;;;;;;1.70;1.60;;;20.90;25.90;;;;;;10441186;28;20228;-77
2023/03/23 14:29:33;;;;;;;2.13;1.63;;;20.90;26.60;;;;;;10460228;28;20759;-77
2023/03/23 14:34:37;;;;;;;1.77;1.57;;;20.90;26.40;;;;;;10448832;28;20263;-77
2023/03/23 14:40:17;;;;;;;1.90;1.70;;;20.90;26.40;;;;;;10451927;28;20266;-79
2023/03/23 14:45:21;;;;;;;1.50;1.40;;;20.90;26.00;;;;;;10453011;28;20767;-72
2023/03/23 14:50:29;;;;;;;1.90;1.60;;;21.00;26.60;;;;;;10442850;28;20239;-72
2023/03/23 14:55:32;;;;;;;1.93;1.70;;;20.90;26.60;;;;;;10447863;28;20232;-72
2023/03/23 15:00:37;;;;;;;1.67;1.50;;;20.90;26.70;;;;;;10434491;28;20233;-72
2023/03/23 15:05:44;;;;;;;1.93;1.63;;;20.90;26.70;;;;;;10448528;28;20312;-73
2023/03/23 15:10:54;;;;;;;1.67;1.57;;;20.90;26.50;;;;;;10451624;28;20229;-74
2023/03/23 15:16:06;;;;;;;1.60;1.50;;;20.90;26.40;;;;;;10450498;28;20243;-73
2023/03/23 15:21:23;;;;;;;1.53;1.43;;;20.60;26.50;;;;;;10449067;28;20228;-73
2023/03/23 15:26:31;;;;;;;1.67;1.57;;;20.80;26.50;;;;;;10432700;28;20232;-72
2023/03/23 15:31:34;;;;;;;1.50;1.40;;;20.80;26.60;;;;;;10446799;28;20220;-78
2023/03/23 15:36:38;;;;;;;1.50;1.40;;;20.80;26.90;;;;;;10448671;28;20229;-74
2023/03/23 15:41:50;;;;;;;2.07;1.47;;;20.80;26.80;;;;;;10446022;28;20234;-79
2023/03/23 15:46:55;;;;;;;1.87;1.77;;;20.80;26.50;;;;;;10448356;28;20643;-78
2023/03/23 15:52:03;;;;;;;2.27;1.50;;;20.80;26.90;;;;;;10450036;28;20216;-77
2023/03/23 15:57:08;;;;;;;1.70;1.53;;;20.70;26.90;;;;;;10458386;28;20227;-79
2023/03/23 16:02:19;;;;;;;1.70;1.60;;;20.70;27.20;;;;;;10453561;28;20216;-78
2023/03/23 16:07:24;;;;;;;1.60;1.50;;;20.70;26.80;;;;;;10476043;28;20239;-74
2023/03/23 16:12:30;;;;;;;2.13;1.80;;;20.70;27.00;;;;;;10460284;28;20239;-76
2023/03/23 16:17:37;;;;;;;2.07;1.90;;;20.80;27.10;;;;;;10459762;28;20878;-76
2023/03/23 16:22:51;;;;;;;2.90;1.90;;;20.80;27.70;;;;;;10456081;28;20649;-77
2023/03/23 16:27:55;;;;;;;1.77;1.67;;;20.70;26.70;;;;;;10457591;28;20220;-77
2023/03/23 16:32:58;;;;;;;1.93;1.80;;;20.60;27.00;;;;;;10462239;28;20671;-76
2023/03/23 16:38:03;;;;;;;3.27;1.80;;;20.50;27.10;;;;;;10465614;28;20331;-76
2023/03/23 16:43:11;;;;;;;1.77;1.67;;;20.50;27.10;;;;;;10460163;28;20224;-76
2023/03/23 16:48:16;;;;;;;1.80;1.70;;;20.40;27.20;;;;;;10455337;28;20339;-76
2023/03/23 16:53:24;;;;;;;3.97;2.37;;;20.30;27.00;;;;;;10465765;28;20682;-77
2023/03/23 16:58:31;;;;;;;5.43;4.10;;;20.20;26.90;;;;;;10466757;28;20230;-77
2023/03/23 17:03:36;;;;;;;3.43;3.13;;;20.20;26.70;;;;;;10469716;28;20252;-76
2023/03/23 17:08:41;;;;;;;3.27;2.90;;;20.10;26.90;;;;;;10464825;28;20307;-77
2023/03/23 17:13:44;;;;;;;2.90;2.60;;;20.10;26.90;;;;;;10461201;28;20231;-77
2023/03/23 17:18:47;;;;;;;3.43;2.37;;;20.00;26.90;;;;;;10459549;28;20255;-76
2023/03/23 17:23:53;;;;;;;4.27;2.30;;;19.90;26.90;;;;;;10463188;28;20590;-76
2023/03/23 17:28:56;;;;;;;3.80;3.27;;;19.80;26.90;;;;;;10463470;28;20232;-76
2023/03/23 17:34:00;;;;;;;4.07;3.10;;;19.80;26.90;;;;;;10462298;28;20224;-75
2023/03/23 17:39:04;;;;;;;3.90;3.50;;;19.70;26.90;;;;;;10462901;28;20221;-75
2023/03/23 17:44:08;;;;;;;2.47;2.30;;;19.60;27.00;;;;;;10462231;28;20248;-75
2023/03/23 17:49:11;;;;;;;2.77;2.57;;;19.60;27.00;;;;;;10458349;28;20228;-74
2023/03/23 17:54:15;;;;;;;2.50;2.30;;;19.50;27.00;;;;;;10449726;28;20228;-74
2023/03/23 17:59:19;;;;;;;2.23;2.07;;;19.50;27.00;;;;;;10458983;28;20224;-75
2023/03/23 18:04:22;;;;;;;2.40;2.20;;;19.50;27.10;;;;;;10457688;28;20236;-75
2023/03/23 18:09:27;;;;;;;2.50;2.30;;;19.40;27.00;;;;;;10456654;28;20239;-74
2023/03/23 18:14:30;;;;;;;2.33;2.17;;;19.40;27.10;;;;;;10458612;28;20747;-75
2023/03/23 18:19:33;;;;;;;2.60;2.30;;;19.40;27.10;;;;;;10464021;28;20738;-75
2023/03/23 18:24:37;;;;;;;2.40;2.20;;;19.30;27.20;;;;;;10466221;28;20232;-74
2023/03/23 18:29:43;;;;;;;2.90;2.60;;;19.30;27.20;;;;;;10463330;28;20227;-78
2023/03/23 18:34:47;;;;;;;3.50;3.20;;;19.30;27.20;;;;;;10472212;28;20225;-80
2023/03/23 18:39:56;;;;;;;9.10;7.60;;;19.30;27.40;;;;;;10469059;28;20228;-78
2023/03/23 18:45:01;;;;;;;7.53;6.73;;;19.20;27.50;;;;;;10475306;28;20235;-78
2023/03/23 18:50:06;;;;;;;4.77;4.33;;;19.10;27.60;;;;;;10471167;28;20622;-81
2023/03/23 18:55:10;;;;;;;5.60;4.57;;;19.10;27.70;;;;;;10467416;28;20228;-78
2023/03/23 19:00:14;;;;;;;4.40;4.00;;;19.00;27.80;;;;;;10471115;28;20264;-79
2023/03/23 19:05:17;;;;;;;3.90;3.50;;;19.00;27.90;;;;;;10467672;28;20225;-79
2023/03/23 19:10:23;;;;;;;3.93;3.50;;;18.90;27.90;;;;;;10476683;28;20221;-79
2023/03/23 19:15:26;;;;;;;3.70;3.40;;;18.80;28.10;;;;;;10481137;28;20580;-79
2023/03/23 19:20:29;;;;;;;3.87;3.10;;;18.80;28.10;;;;;;10475324;28;20217;-79
2023/03/23 19:25:55;;;;;;;3.30;2.80;;;18.70;28.10;;;;;;10476548;28;20697;-79
2023/03/23 19:30:58;;;;;;;4.67;3.00;;;18.60;28.30;;;;;;10473211;28;20225;-79
2023/03/23 19:36:02;;;;;;;3.90;3.60;;;18.60;28.30;;;;;;10467367;28;20236;-78
2023/03/23 19:41:16;;;;;;;4.40;3.90;;;18.50;28.30;;;;;;10470763;28;20259;-80
2023/03/23 19:46:21;;;;;;;3.90;3.50;;;18.40;28.50;;;;;;10472785;28;20221;-80
2023/03/23 19:51:26;;;;;;;4.37;3.43;;;18.30;28.60;;;;;;10474522;28;20685;-80
2023/03/23 19:56:33;;;;;;;3.73;3.40;;;18.20;28.60;;;;;;10460739;28;20720;-79
2023/03/23 20:01:36;;;;;;;4.10;3.27;;;18.10;28.70;;;;;;10471566;28;20311;-80
2023/03/23 20:06:40;;;;;;;3.70;3.33;;;18.10;28.70;;;;;;10465535;28;20227;-78
2023/03/23 20:11:44;;;;;;;4.03;3.60;;;18.10;28.80;;;;;;10457922;28;20243;-77
2023/03/23 20:16:48;;;;;;;3.50;3.20;;;18.00;28.90;;;;;;10465170;28;20232;-80
2023/03/23 20:21:55;;;;;;;3.50;3.20;;;18.00;28.90;;;;;;10463344;28;20220;-81
2023/03/23 20:27:02;;;;;;;3.20;3.00;;;18.10;29.00;;;;;;10460402;28;20225;-80
2023/03/23 20:32:06;;;;;;;3.97;3.57;;;18.00;29.10;;;;;;10463898;28;20237;-80
2023/03/23 20:37:15;;;;;;;3.53;3.23;;;18.00;29.00;;;;;;10463704;28;20228;-80
2023/03/23 20:42:20;;;;;;;3.27;2.90;;;18.00;29.30;;;;;;10459771;28;20231;-80
2023/03/23 20:47:23;;;;;;;3.60;3.30;;;17.90;29.20;;;;;;10465337;28;20228;-80
2023/03/23 20:52:26;;;;;;;3.83;3.27;;;17.90;29.20;;;;;;10466145;28;20700;-80
2023/03/23 20:57:31;;;;;;;3.57;3.00;;;17.80;29.20;;;;;;10463515;28;20232;-80
2023/03/23 21:02:35;;;;;;;4.80;3.60;;;17.80;29.60;;;;;;10467157;28;20232;-80
2023/03/23 21:07:40;;;;;;;4.60;3.90;;;17.70;29.40;;;;;;10468615;28;20696;-81
2023/03/23 21:12:46;;;;;;;3.63;3.33;;;17.70;29.50;;;;;;10463720;28;20316;-79
2023/03/23 21:17:50;;;;;;;3.33;3.03;;;17.70;29.80;;;;;;10465030;28;20224;-80
2023/03/23 21:22:54;;;;;;;3.67;3.37;;;17.60;29.70;;;;;;10462623;28;20323;-79
2023/03/23 21:27:59;;;;;;;3.57;3.27;;;17.60;29.90;;;;;;10471106;28;22714;-79
2023/03/23 21:33:04;;;;;;;4.20;3.00;;;17.50;30.00;;;;;;10464035;28;20760;-74
2023/03/23 21:38:13;;;;;;;4.10;3.70;;;17.50;29.90;;;;;;10462401;28;20227;-73
2023/03/23 21:43:18;;;;;;;4.10;3.70;;;17.50;30.00;;;;;;10467176;28;20790;-73
2023/03/23 21:48:22;;;;;;;3.80;3.33;;;17.60;30.20;;;;;;10452474;28;20244;-80
2023/03/23 21:53:26;;;;;;;5.30;3.80;;;17.50;30.00;;;;;;10465950;28;20740;-80
2023/03/23 21:58:31;;;;;;;4.33;3.93;;;17.40;29.90;;;;;;10464114;28;20224;-80
2023/03/23 22:03:35;;;;;;;4.20;3.80;;;17.40;30.10;;;;;;10465046;28;20232;-80
2023/03/23 22:08:43;;;;;;;5.13;4.00;;;17.50;30.00;;;;;;10458554;28;20662;-80
2023/03/23 22:13:47;;;;;;;3.90;3.50;;;17.40;30.00;;;;;;10464969;28;20221;-80
2023/03/23 22:18:52;;;;;;;3.77;3.37;;;17.40;30.10;;;;;;10470035;28;20240;-80
2023/03/23 22:23:58;;;;;;;3.50;3.20;;;17.40;30.00;;;;;;10463950;28;20602;-80
2023/03/23 22:29:03;;;;;;;3.97;3.60;;;17.30;30.20;;;;;;10461044;28;20229;-76
2023/03/23 22:34:07;;;;;;;4.83;3.30;;;17.30;30.60;;;;;;10465136;28;20574;-76
2023/03/23 22:39:10;;;;;;;4.97;3.53;;;17.20;30.30;;;;;;10475794;28;20235;-76
2023/03/23 22:44:18;;;;;;;3.97;3.57;;;17.20;30.50;;;;;;10475413;28;20754;-76
2023/03/23 22:49:21;;;;;;;3.70;3.40;;;17.10;30.80;;;;;;10468461;28;20319;-76
2023/03/23 22:54:24;;;;;;;3.60;3.30;;;17.10;30.50;;;;;;10470719;28;20239;-75
2023/03/23 22:59:29;;;;;;;3.90;3.57;;;17.10;30.60;;;;;;10466359;28;20221;-75
2023/03/23 23:04:33;;;;;;;4.10;3.50;;;17.10;30.90;;;;;;10465312;28;20233;-75
2023/03/23 23:09:38;;;;;;;3.70;3.20;;;17.10;30.80;;;;;;10458633;28;20462;-76
2023/03/23 23:14:44;;;;;;;3.70;3.40;;;17.10;30.80;;;;;;10472016;28;20236;-75
2023/03/23 23:19:47;;;;;;;5.77;3.37;;;17.10;31.10;;;;;;10472443;28;20228;-73
2023/03/23 23:24:51;;;;;;;4.47;3.97;;;17.00;30.80;;;;;;10469863;28;20232;-73
2023/03/23 23:29:56;;;;;;;4.07;3.67;;;17.00;30.80;;;;;;10464137;28;20613;-73
2023/03/23 23:35:00;;;;;;;3.83;3.53;;;17.00;31.10;;;;;;10467927;28;20255;-72
2023/03/23 23:40:06;;;;;;;5.20;3.43;;;17.10;31.00;;;;;;10473662;28;20224;-73
2023/03/23 23:45:12;;;;;;;3.90;3.60;;;17.00;31.00;;;;;;10462918;28;20225;-73
2023/03/23 23:50:16;;;;;;;3.87;3.47;;;17.10;31.30;;;;;;10462652;28;20537;-73
2023/03/23 23:55:20;;;;;;;4.80;4.27;;;17.00;30.90;;;;;;10462654;28;20556;-72
